createdAt,value
2018-11-21T00:00:40.691Z,20.40
2018-11-21T00:03:14.050Z,22.07
2018-11-21T00:05:48.008Z,17.42
2018-11-21T00:08:22.300Z,24.10
2018-11-21T00:10:55.053Z,18.98
2018-11-21T00:13:26.515Z,24.07
2018-11-21T00:15:58.634Z,19.77
2018-11-21T00:18:29.624Z,20.82
2018-11-21T00:21:01.230Z,17.57
2018-11-21T00:23:34.387Z,18.00
2018-11-21T00:26:05.411Z,21.55
2018-11-21T00:28:36.786Z,24.52
2018-11-21T00:31:08.510Z,23.60
2018-11-21T00:33:43.362Z,24.15
2018-11-21T00:36:15.591Z,23.35
2018-11-21T00:38:47.904Z,20.48
2018-11-21T00:41:18.877Z,16.52
2018-11-21T00:43:49.784Z,21.62
2018-11-21T00:46:24.278Z,17.95
2018-11-21T00:48:57.781Z,20.00
2018-11-21T00:51:28.761Z,13.38
2018-11-21T00:54:01.552Z,15.32
2018-11-21T00:56:35.282Z,18.23
2018-11-21T00:59:06.893Z,18.55
2018-11-21T01:01:40.996Z,18.45
2018-11-21T01:04:13.499Z,25.32
2018-11-21T01:06:46.150Z,13.78
2018-11-21T01:09:17.321Z,15.98
2018-11-21T01:11:48.774Z,15.95
2018-11-21T01:14:19.793Z,21.23
2018-11-21T01:16:53.481Z,20.90
2018-11-21T01:19:26.785Z,20.97
2018-11-21T01:21:57.501Z,19.20
2018-11-21T01:24:28.760Z,22.30
2018-11-21T01:27:02.045Z,14.20
2018-11-21T01:29:33.890Z,22.22
2018-11-21T01:32:07.009Z,18.67
2018-11-21T01:34:38.046Z,17.52
2018-11-21T01:37:09.243Z,16.65
2018-11-21T01:39:40.621Z,14.47
2018-11-21T01:42:13.279Z,20.15
2018-11-21T01:44:46.850Z,17.65
2018-11-21T01:47:22.144Z,17.60
2018-11-21T01:49:53.932Z,15.00
2018-11-21T01:52:25.343Z,14.68
2018-11-21T01:54:58.033Z,17.73
2018-11-21T01:57:29.375Z,19.95
2018-11-21T02:00:00.916Z,18.00
2018-11-21T02:02:33.511Z,15.75
2018-11-21T02:05:06.027Z,15.28
2018-11-21T02:07:37.318Z,17.12
2018-11-21T02:10:11.509Z,11.50
2018-11-21T02:12:44.832Z,14.18
2018-11-21T02:15:16.904Z,18.90
2018-11-21T02:17:49.370Z,19.80
2018-11-21T02:20:22.616Z,15.05
2018-11-21T02:22:55.197Z,21.35
2018-11-21T02:25:26.283Z,12.05
2018-11-21T02:28:02.914Z,12.93
2018-11-21T02:30:36.112Z,14.40
2018-11-21T02:33:08.892Z,19.70
2018-11-21T02:35:41.785Z,15.80
2018-11-21T02:38:14.253Z,15.70
2018-11-21T02:40:45.504Z,15.32
2018-11-21T02:43:16.862Z,15.63
2018-11-21T02:45:48.371Z,16.55
2018-11-21T02:48:20.757Z,12.55
2018-11-21T02:50:53.915Z,18.60
2018-11-21T02:53:24.759Z,11.50
2018-11-21T02:55:55.947Z,16.65
2018-11-21T02:58:27.223Z,11.65
2018-11-21T03:00:58.363Z,14.78
2018-11-21T03:03:30.029Z,13.13
2018-11-21T03:06:03.263Z,16.40
2018-11-21T03:08:38.617Z,13.95
2018-11-21T03:11:10.254Z,9.33
2018-11-21T03:13:40.992Z,13.22
2018-11-21T03:16:12.125Z,18.12
2018-11-21T03:18:42.612Z,16.20
2018-11-21T03:21:14.528Z,12.88
2018-11-21T03:23:45.275Z,16.95
2018-11-21T03:26:16.379Z,9.60
2018-11-21T03:28:47.405Z,18.25
2018-11-21T03:31:18.795Z,9.75
2018-11-21T03:33:57.584Z,14.50
2018-11-21T03:36:24.163Z,12.58
2018-11-21T03:38:57.929Z,11.90
2018-11-21T03:41:29.874Z,14.00
2018-11-21T03:44:02.120Z,13.85
2018-11-21T03:46:34.011Z,14.68
2018-11-21T03:49:07.359Z,10.88
2018-11-21T03:51:39.042Z,9.48
2018-11-21T03:54:10.379Z,12.13
2018-11-21T03:56:43.747Z,12.37
2018-11-21T03:59:16.091Z,14.70
2018-11-21T04:01:49.031Z,10.90
2018-11-21T04:04:22.062Z,12.45
2018-11-21T04:06:54.247Z,12.05
2018-11-21T04:09:27.815Z,8.35
2018-11-21T04:12:03.926Z,11.80
2018-11-21T04:14:37.312Z,13.20
2018-11-21T04:17:08.307Z,15.15
2018-11-21T04:19:40.183Z,15.53
2018-11-21T04:22:12.267Z,14.47
2018-11-21T04:24:47.651Z,12.53
2018-11-21T04:27:20.839Z,12.18
2018-11-21T04:29:54.127Z,9.15
2018-11-21T04:32:25.168Z,15.90
2018-11-21T04:34:58.883Z,9.83
2018-11-21T04:37:29.896Z,12.60
2018-11-21T04:40:01.331Z,9.95
2018-11-21T04:42:33.809Z,16.57
2018-11-21T04:45:05.907Z,10.10
2018-11-21T04:47:38.358Z,10.90
2018-11-21T04:50:11.435Z,8.73
2018-11-21T04:52:45.292Z,13.15
2018-11-21T04:55:18.394Z,10.58
2018-11-21T04:57:49.421Z,14.43
2018-11-21T05:00:21.391Z,12.82
2018-11-21T05:02:54.332Z,6.92
2018-11-21T05:05:26.846Z,8.53
2018-11-21T05:07:57.762Z,5.78
2018-11-21T05:10:31.528Z,17.82
2018-11-21T05:13:04.803Z,10.43
2018-11-21T05:15:37.032Z,12.58
2018-11-21T05:18:13.800Z,10.75
2018-11-21T05:20:47.264Z,7.67
2018-11-21T05:23:19.354Z,10.38
2018-11-21T05:25:52.438Z,10.25
2018-11-21T05:28:23.409Z,10.55
2018-11-21T05:30:54.485Z,10.05
2018-11-21T05:33:27.181Z,11.05
2018-11-21T05:36:03.111Z,11.35
2018-11-21T05:38:37.252Z,11.33
2018-11-21T05:41:10.853Z,12.37
2018-11-21T05:43:43.421Z,16.73
2018-11-21T05:46:15.328Z,11.60
2018-11-21T05:48:48.836Z,7.25
2018-11-21T05:51:18.940Z,9.65
2018-11-21T05:53:51.296Z,13.03
2018-11-21T05:56:27.743Z,9.85
2018-11-21T05:58:59.759Z,13.08
2018-11-21T06:01:35.264Z,12.33
2018-11-21T06:04:08.450Z,6.50
2018-11-21T06:06:43.452Z,5.60
2018-11-21T06:09:15.414Z,13.22
2018-11-21T06:11:47.529Z,8.05
2018-11-21T06:14:20.424Z,19.87
2018-11-21T06:16:58.813Z,10.88
2018-11-21T06:19:31.759Z,8.18
2018-11-21T06:22:04.171Z,12.68
2018-11-21T06:24:36.868Z,9.23
2018-11-21T06:27:08.399Z,14.07
2018-11-21T06:29:38.645Z,9.23
2018-11-21T06:32:14.094Z,10.78
2018-11-21T06:34:45.793Z,15.45
2018-11-21T06:37:16.306Z,10.93
2018-11-21T06:39:46.265Z,8.85
2018-11-21T06:42:19.101Z,9.73
2018-11-21T06:44:49.147Z,10.95
2018-11-21T06:47:25.182Z,9.93
2018-11-21T06:49:56.127Z,13.13
2018-11-21T06:52:32.591Z,12.88
2018-11-21T06:55:03.862Z,13.05
2018-11-21T06:57:38.701Z,13.48
2018-11-21T07:00:10.855Z,31.42
2018-11-21T07:02:45.370Z,25.02
2018-11-21T07:05:18.144Z,28.10
2018-11-21T07:07:48.775Z,24.57
2018-11-21T07:10:20.882Z,22.10
2018-11-21T07:12:54.522Z,21.12
2018-11-21T07:15:31.333Z,23.30
2018-11-21T07:18:01.417Z,28.70
2018-11-21T07:20:34.633Z,30.37
2018-11-21T07:23:05.436Z,29.00
2018-11-21T07:25:35.981Z,46.20
2018-11-21T07:28:13.106Z,57.78
2018-11-21T07:31:02.102Z,67.62
2018-11-21T07:33:34.802Z,112.10
2018-11-21T07:36:05.315Z,126.05
2018-11-21T07:38:36.990Z,172.72
2018-11-21T07:41:07.237Z,568.92
2018-11-21T07:43:42.991Z,201.80
2018-11-21T07:46:12.221Z,253.73
2018-11-21T07:48:43.038Z,374.20
2018-11-21T07:51:13.839Z,209.77
2018-11-21T07:53:47.989Z,222.10
2018-11-21T07:56:36.428Z,246.07
2018-11-21T07:59:10.212Z,202.45
2018-11-21T08:01:58.494Z,224.75
2018-11-21T08:04:46.907Z,220.12
2018-11-21T08:07:32.121Z,253.35
2018-11-21T08:10:41.774Z,238.92
2018-11-21T08:13:36.739Z,195.87
2018-11-21T08:16:27.515Z,209.85
2018-11-21T08:19:20.242Z,206.05
2018-11-21T08:22:20.404Z,191.55
2018-11-21T08:25:14.233Z,194.90
2018-11-21T08:28:12.377Z,176.60
2018-11-21T08:30:47.305Z,153.72
2018-11-21T08:33:20.628Z,156.70
2018-11-21T08:35:52.957Z,171.87
2018-11-21T08:38:26.766Z,156.85
2018-11-21T08:41:01.230Z,168.22
2018-11-21T08:43:34.427Z,175.97
2018-11-21T08:46:05.080Z,158.93
2018-11-21T08:48:36.714Z,161.03
2018-11-21T08:51:08.735Z,149.65
2018-11-21T08:53:43.289Z,151.47
2018-11-21T08:56:18.679Z,149.32
2018-11-21T08:59:26.178Z,142.60
2018-11-21T09:02:00.854Z,149.90
2018-11-21T09:07:45.071Z,140.73
2018-11-21T09:10:18.515Z,143.10
2018-11-21T09:12:58.250Z,144.43
2018-11-21T09:15:58.795Z,146.47
2018-11-21T09:18:31.190Z,131.40
2018-11-21T09:21:11.402Z,129.53
2018-11-21T09:23:41.977Z,129.30
2018-11-21T09:26:14.151Z,126.10
2018-11-21T09:31:50.964Z,119.93
2018-11-21T09:34:24.604Z,115.10
2018-11-21T09:36:55.970Z,111.68
2018-11-21T09:39:28.317Z,115.57
2018-11-21T09:42:01.064Z,112.47
2018-11-21T09:44:34.860Z,100.22
2018-11-21T09:47:05.523Z,83.92
2018-11-21T09:49:38.921Z,111.10
2018-11-21T09:52:10.071Z,116.15
2018-11-21T09:54:41.344Z,119.42
2018-11-21T09:57:19.116Z,82.53
2018-11-21T09:59:53.384Z,103.38
2018-11-21T10:02:46.076Z,93.75
2018-11-21T10:05:19.772Z,88.55
2018-11-21T10:08:00.830Z,93.10
2018-11-21T10:10:33.507Z,85.17
2018-11-21T10:13:08.186Z,89.20
2018-11-21T10:15:39.921Z,94.20
2018-11-21T10:18:10.931Z,83.33
2018-11-21T10:20:44.971Z,85.57
2018-11-21T10:23:17.856Z,83.47
2018-11-21T10:25:50.906Z,88.78
2018-11-21T10:28:24.173Z,87.70
2018-11-21T10:30:57.629Z,79.20
2018-11-21T10:33:30.025Z,80.20
2018-11-21T10:36:03.495Z,80.55
2018-11-21T10:38:41.405Z,82.37
2018-11-21T10:41:17.773Z,83.30
2018-11-21T10:43:51.290Z,75.30
2018-11-21T10:46:24.430Z,71.65
2018-11-21T10:48:56.993Z,70.65
2018-11-21T10:51:31.334Z,76.02
2018-11-21T10:54:05.473Z,71.82
2018-11-21T10:56:39.169Z,62.85
2018-11-21T10:59:12.418Z,62.70
2018-11-21T11:02:07.417Z,62.25
2018-11-21T11:05:04.437Z,63.70
2018-11-21T11:08:06.323Z,60.12
2018-11-21T11:11:08.610Z,77.42
2018-11-21T11:14:05.502Z,62.27
2018-11-21T11:17:00.542Z,67.47
2018-11-21T11:19:52.743Z,76.02
2018-11-21T11:22:48.501Z,74.05
2018-11-21T11:25:42.635Z,94.25
2018-11-21T11:29:20.207Z,150.40
2018-11-21T11:32:12.548Z,179.10
2018-11-21T11:35:03.870Z,171.35
2018-11-21T11:38:00.737Z,212.12
2018-11-21T11:41:12.571Z,225.15
2018-11-21T11:44:07.189Z,254.00
2018-11-21T11:47:20.558Z,268.25
2018-11-21T11:50:14.034Z,255.98
2018-11-21T11:53:19.067Z,267.98
2018-11-21T11:56:11.979Z,222.02
2018-11-21T11:59:12.863Z,211.90
2018-11-21T12:02:00.077Z,227.15
2018-11-21T12:04:51.310Z,190.77
2018-11-21T12:07:54.491Z,200.18
2018-11-21T12:11:05.386Z,198.25
2018-11-21T12:13:57.625Z,208.65
2018-11-21T12:17:00.577Z,208.20
2018-11-21T12:19:54.034Z,185.32
2018-11-21T12:22:49.492Z,182.53
2018-11-21T12:25:44.688Z,199.82
2018-11-21T12:28:38.543Z,185.70
2018-11-21T12:31:38.950Z,171.00
2018-11-21T12:34:24.128Z,166.15
2018-11-21T12:37:22.758Z,152.43
2018-11-21T12:40:31.370Z,162.35
2018-11-21T12:43:22.926Z,158.25
2018-11-21T12:46:16.811Z,167.77
2018-11-21T12:49:15.036Z,164.18
2018-11-21T12:51:58.459Z,153.53
2018-11-21T12:55:00.728Z,155.93
2018-11-21T12:57:59.168Z,146.00
2018-11-21T13:00:54.568Z,147.47
2018-11-21T13:03:50.227Z,141.03
2018-11-21T13:06:58.059Z,131.72
2018-11-21T13:09:48.707Z,152.57
2018-11-21T13:12:44.026Z,124.40
2018-11-21T13:15:43.499Z,133.80
2018-11-21T13:18:31.498Z,114.72
2018-11-21T13:21:42.654Z,114.25
2018-11-21T13:24:42.390Z,112.47
2018-11-21T13:27:40.806Z,108.65
2018-11-21T13:30:42.345Z,116.20
2018-11-21T13:33:38.089Z,100.90
2018-11-21T13:36:30.721Z,107.37
2018-11-21T13:39:24.687Z,140.73
2018-11-21T13:42:51.153Z,104.60
2018-11-21T13:45:44.366Z,99.17
2018-11-21T13:48:40.341Z,103.40
2018-11-21T13:51:52.457Z,86.78
2018-11-21T13:54:52.008Z,102.97
2018-11-21T13:57:45.609Z,108.10
2018-11-21T14:00:15.857Z,106.45
2018-11-21T14:02:52.330Z,94.25
2018-11-21T14:05:25.958Z,86.28
2018-11-21T14:07:57.131Z,90.75
2018-11-21T14:10:31.039Z,86.25
2018-11-21T14:13:02.020Z,95.65
2018-11-21T14:15:33.366Z,86.12
2018-11-21T14:18:06.420Z,83.92
2018-11-21T14:20:38.625Z,79.72
2018-11-21T14:23:10.056Z,78.42
2018-11-21T14:25:40.711Z,81.08
2018-11-21T14:28:13.150Z,72.97
2018-11-21T14:30:46.647Z,67.17
2018-11-21T14:33:24.292Z,164.62
2018-11-21T14:35:58.524Z,76.75
2018-11-21T14:38:38.048Z,178.68
2018-11-21T14:48:28.538Z,164.15
2018-11-21T14:52:04.367Z,134.32
2018-11-21T14:54:46.137Z,180.03
2018-11-21T14:58:03.256Z,172.53
2018-11-21T15:01:05.496Z,180.57
2018-11-21T15:03:41.273Z,211.28
2018-11-21T15:06:12.964Z,220.67
2018-11-21T15:08:44.214Z,207.30
2018-11-21T15:11:16.770Z,200.05
2018-11-21T15:13:47.781Z,219.85
2018-11-21T15:16:26.204Z,217.37
2018-11-21T15:18:58.376Z,208.57
2018-11-21T15:21:30.895Z,204.85
2018-11-21T15:24:04.370Z,209.27
